createdAt,value
2018-09-11T00:00:01.124Z,80.81
2018-09-11T00:01:01.359Z,81.33
2018-09-11T00:02:01.355Z,80.24
2018-09-11T00:03:01.356Z,79.57
2018-09-11T00:04:01.365Z,78.8
2018-09-11T00:05:01.349Z,78.42
2018-09-11T00:06:01.406Z,78.32
2018-09-11T00:07:01.335Z,77.75
2018-09-11T00:08:01.331Z,77.94
2018-09-11T00:09:01.325Z,78.32
2018-09-11T00:10:01.067Z,78.99
2018-09-11T00:11:01.316Z,78.89
2018-09-11T00:12:01.307Z,76.98
2018-09-11T00:13:01.305Z,78.03
2018-09-11T00:14:01.304Z,79.18
2018-09-11T00:15:01.295Z,79.57
2018-09-11T00:16:01.292Z,78.51
2018-09-11T00:17:01.301Z,77.84
2018-09-11T00:18:01.282Z,77.84
2018-09-11T00:19:01.276Z,75.73
2018-09-11T00:20:01.269Z,75.83
2018-09-11T00:21:01.267Z,76.69
2018-09-11T00:22:01.258Z,77.17
2018-09-11T00:23:01.000Z,77.84
2018-09-11T00:24:01.252Z,78.99
2018-09-11T00:25:00.992Z,80.62
2018-09-11T00:26:01.245Z,79.95
2018-09-11T00:27:01.237Z,79.28
2018-09-11T00:28:01.231Z,78.13
2018-09-11T00:29:01.225Z,76.02
2018-09-11T00:30:01.222Z,76.08
2018-09-11T00:31:01.220Z,76.94
2018-09-11T00:32:00.958Z,77.04
2018-09-11T00:33:01.214Z,77.23
2018-09-11T00:34:01.203Z,76.56
2018-09-11T00:35:01.208Z,75.89
2018-09-11T00:36:01.191Z,72.83
2018-09-11T00:37:01.190Z,72.25
2018-09-11T00:38:01.184Z,72.83
2018-09-11T00:39:01.188Z,73.21
2018-09-11T00:40:00.917Z,72.73
2018-09-11T00:41:01.166Z,72.16
2018-09-11T00:42:01.168Z,70.05
2018-09-11T00:43:01.155Z,69.73
2018-09-11T00:44:01.150Z,69.09
2018-09-11T00:45:01.145Z,69.64
2018-09-11T00:46:01.140Z,70.5
2018-09-11T00:47:01.134Z,71.93
2018-09-11T00:48:01.126Z,71.83
2018-09-11T00:49:01.121Z,72.41
2018-09-11T00:50:01.128Z,73.27
2018-09-11T00:51:01.115Z,72.41
2018-09-11T00:52:01.492Z,71.26
2018-09-11T00:53:01.104Z,69.35
2018-09-11T00:54:01.097Z,69.35
2018-09-11T00:55:01.095Z,69.73
2018-09-11T00:56:01.090Z,70.59
2018-09-11T00:57:01.080Z,71.26
2018-09-11T00:58:01.075Z,71.73
2018-09-11T00:59:01.071Z,70.59
2018-09-11T01:00:01.071Z,71.73
2018-09-11T01:01:01.062Z,68.68
2018-09-11T01:02:01.059Z,69.06
2018-09-11T01:03:01.052Z,70.59
2018-09-11T01:04:00.787Z,71.07
2018-09-11T01:05:01.041Z,67.43
2018-09-11T01:06:01.078Z,64.28
2018-09-11T01:07:01.026Z,63.6
2018-09-11T01:08:01.020Z,65.71
2018-09-11T01:09:01.017Z,65.9
2018-09-11T01:10:01.060Z,67.05
2018-09-11T01:11:01.004Z,67.72
2018-09-11T01:12:00.998Z,67.91
2018-09-11T01:13:00.996Z,68.49
2018-09-11T01:14:00.987Z,69.35
2018-09-11T01:15:00.984Z,69.54
2018-09-11T01:16:00.981Z,68.49
2018-09-11T01:17:00.970Z,68.68
2018-09-11T01:18:00.965Z,67.53
2018-09-11T01:19:00.960Z,66.96
2018-09-11T01:20:00.701Z,66.96
2018-09-11T01:21:00.951Z,66.67
2018-09-11T01:22:00.943Z,64.18
2018-09-11T01:23:00.937Z,61.69
2018-09-11T01:24:00.934Z,62.17
2018-09-11T01:25:00.926Z,64.28
2018-09-11T01:26:00.925Z,64.56
2018-09-11T01:27:00.922Z,64.95
2018-09-11T01:28:00.909Z,63.23
2018-09-11T01:29:00.904Z,63.42
2018-09-11T01:30:00.906Z,65.61
2018-09-11T01:31:00.903Z,66.76
2018-09-11T01:32:00.885Z,67.14
2018-09-11T01:33:00.886Z,66.67
2018-09-11T01:34:00.877Z,65.48
2018-09-11T01:35:00.870Z,64.43
2018-09-11T01:36:00.871Z,64.85
2018-09-11T01:37:00.863Z,64.82
2018-09-11T01:38:00.856Z,64.05
2018-09-11T01:39:00.848Z,64.91
2018-09-11T01:40:00.852Z,65.39
2018-09-11T01:41:00.838Z,65.11
2018-09-11T01:42:00.575Z,64.15
2018-09-11T01:43:00.830Z,64.25
2018-09-11T01:44:00.818Z,62.33
2018-09-11T01:45:00.816Z,60.99
2018-09-11T01:46:00.551Z,58.32
2018-09-11T01:47:00.801Z,57.65
2018-09-11T01:48:00.795Z,58.51
2018-09-11T01:49:00.807Z,60.42
2018-09-11T01:50:00.784Z,61.47
2018-09-11T01:51:00.778Z,62.14
2018-09-11T01:52:00.772Z,61.85
2018-09-11T01:53:00.771Z,60.99
2018-09-11T01:54:00.503Z,61.09
2018-09-11T01:55:00.496Z,61.28
2018-09-11T01:56:00.748Z,61.57
2018-09-11T01:57:00.748Z,59.08
2018-09-11T01:58:00.744Z,55.54
2018-09-11T01:59:00.734Z,53.82
2018-09-11T02:00:00.722Z,53.44
2018-09-11T02:01:00.714Z,55.54
2018-09-11T02:02:00.715Z,57.62
2018-09-11T02:03:00.708Z,59.08
2018-09-11T02:04:00.701Z,58.86
2018-09-11T02:05:00.695Z,58.86
2018-09-11T02:06:00.690Z,59.72
2018-09-11T02:07:00.685Z,60.1
2018-09-11T02:08:00.421Z,60.58
2018-09-11T02:09:00.411Z,60.68
2018-09-11T02:10:00.664Z,60.68
2018-09-11T02:11:00.660Z,60.39
2018-09-11T02:12:00.652Z,59.34
2018-09-11T02:13:00.643Z,58.67
2018-09-11T02:14:00.382Z,54.66
2018-09-11T02:15:00.637Z,50.93
2018-09-11T02:16:00.625Z,49.59
2018-09-11T02:17:00.618Z,49.21
2018-09-11T02:18:00.615Z,47.97
2018-09-11T02:19:00.347Z,47.87
2018-09-11T02:20:00.596Z,46.61
2018-09-11T02:21:00.594Z,45.56
2018-09-11T02:22:00.589Z,46.61
2018-09-11T02:23:00.579Z,45.84
2018-09-11T02:24:00.319Z,46.89
2018-09-11T02:25:00.570Z,47.85
2018-09-11T02:26:00.303Z,48.71
2018-09-11T02:27:00.554Z,48.9
2018-09-11T02:28:00.550Z,49.47
2018-09-11T02:29:00.537Z,49.95
2018-09-11T02:30:00.542Z,48.04
2018-09-11T02:31:00.528Z,47.66
2018-09-11T02:32:00.522Z,45.94
2018-09-11T02:33:00.513Z,43.65
2018-09-11T02:34:00.513Z,44.79
2018-09-11T02:35:00.243Z,46.99
2018-09-11T02:36:00.499Z,47.85
2018-09-11T02:37:00.230Z,48.33
2018-09-11T02:38:00.223Z,48.9
2018-09-11T02:39:00.473Z,49.18
2018-09-11T02:40:00.467Z,49.57
2018-09-11T02:41:00.456Z,49.09
2018-09-11T02:42:00.457Z,48.42
2018-09-11T02:43:00.449Z,47.66
2018-09-11T02:44:00.446Z,45.84
2018-09-11T02:45:00.428Z,43.07
2018-09-11T02:46:00.425Z,42.6
2018-09-11T02:47:00.430Z,41.62
2018-09-11T02:48:00.411Z,42.19
2018-09-11T02:49:00.404Z,42.67
2018-09-11T02:50:00.401Z,41.55
2018-09-11T02:51:00.391Z,40.19
2018-09-11T02:52:00.383Z,41.05
2018-09-11T02:53:00.379Z,42.1
2018-09-11T02:54:00.372Z,43.43
2018-09-11T02:55:00.107Z,43.62
2018-09-11T02:56:00.359Z,42.57
2018-09-11T02:57:00.090Z,40.95
2018-09-11T02:58:00.350Z,41.91
2018-09-11T02:59:00.348Z,41.91
2018-09-11T03:00:00.071Z,42.57
2018-09-11T03:01:00.316Z,42.57
2018-09-11T03:02:00.312Z,42.86
2018-09-11T03:03:00.303Z,41.33
2018-09-11T03:04:00.045Z,40.95
2018-09-11T03:05:00.293Z,40.47
2018-09-11T03:06:00.042Z,40.86
2018-09-11T03:07:00.277Z,39.61
2018-09-11T03:08:00.271Z,37.9
2018-09-11T03:09:00.262Z,37.8
2018-09-11T03:10:00.258Z,38.56
2018-09-11T03:11:00.253Z,39.23
2018-09-11T03:12:00.244Z,39.42
2018-09-11T03:13:00.236Z,40
2018-09-11T03:13:59.970Z,39.32
2018-09-11T03:15:00.217Z,39.52
2018-09-11T03:16:00.214Z,39.52
2018-09-11T03:16:59.951Z,38.56
2018-09-11T03:18:00.197Z,37.9
2018-09-11T03:19:00.044Z,37.61
2018-09-11T03:20:00.187Z,37.71
2018-09-11T03:20:59.921Z,36.56
2018-09-11T03:22:00.171Z,36.85
2018-09-11T03:22:59.907Z,37.51
2018-09-11T03:23:59.900Z,38.37
2018-09-11T03:24:59.894Z,38.18
2018-09-11T03:26:00.140Z,36.94
2018-09-11T03:26:59.877Z,36.85
2018-09-11T03:28:00.137Z,37.8
2018-09-11T03:29:00.122Z,38.28
2018-09-11T03:29:59.855Z,38.28
2018-09-11T03:31:00.155Z,38.37
2018-09-11T03:31:59.842Z,39.12
2018-09-11T03:32:59.834Z,39.31
2018-09-11T03:34:00.094Z,37.9
2018-09-11T03:34:59.818Z,38.37
2018-09-11T03:36:00.069Z,38.35
2018-09-11T03:36:59.803Z,38.54
2018-09-11T03:37:59.845Z,38.26
2018-09-11T03:38:59.789Z,38.07
2018-09-11T03:39:59.780Z,37.68
2018-09-11T03:41:00.028Z,37.88
2018-09-11T03:42:00.029Z,37.21
2018-09-11T03:42:59.758Z,36.54
2018-09-11T03:44:00.073Z,36.25
2018-09-11T03:44:59.744Z,35.3
2018-09-11T03:45:59.737Z,34.44
2018-09-11T03:46:59.989Z,34.25
2018-09-11T03:47:59.723Z,34.63
2018-09-11T03:48:59.972Z,35.3
2018-09-11T03:49:59.708Z,35.78
2018-09-11T03:50:59.697Z,35.97
2018-09-11T03:51:59.947Z,36.73
2018-09-11T03:52:59.940Z,37.21
2018-09-11T03:53:59.939Z,36.07
2018-09-11T03:54:59.925Z,35.3
2018-09-11T03:55:59.921Z,35.3
2018-09-11T03:56:59.912Z,35.99
2018-09-11T03:57:59.904Z,36.73
2018-09-11T03:58:59.903Z,37.13
2018-09-11T03:59:59.889Z,35.8
2018-09-11T04:00:59.882Z,34.63
2018-09-11T04:01:59.874Z,35.6
2018-09-11T04:02:59.870Z,36.18
2018-09-11T04:03:59.859Z,37.13
2018-09-11T04:04:59.593Z,37.99
2018-09-11T04:05:59.846Z,38.18
2018-09-11T04:06:59.833Z,38.85
2018-09-11T04:07:59.829Z,39.42
2018-09-11T04:08:59.825Z,38.18
2018-09-11T04:09:59.813Z,37.42
2018-09-11T04:10:59.804Z,37.32
2018-09-11T04:11:59.794Z,38.09
2018-09-11T04:12:59.789Z,38.18
2018-09-11T04:13:59.785Z,38.56
2018-09-11T04:14:59.773Z,38.76
2018-09-11T04:15:59.765Z,38.76
2018-09-11T04:16:59.759Z,38.95
2018-09-11T04:17:59.756Z,39.14
2018-09-11T04:18:59.785Z,37.99
2018-09-11T04:19:59.738Z,35.51
2018-09-11T04:20:59.473Z,32.93
2018-09-11T04:21:59.466Z,31.31
2018-09-11T04:22:59.713Z,30.26
2018-09-11T04:23:59.704Z,29.49
2018-09-11T04:24:59.700Z,29.97
2018-09-11T04:25:59.694Z,31.6
2018-09-11T04:26:59.686Z,32.45
2018-09-11T04:27:59.679Z,33.7
2018-09-11T04:28:59.671Z,34.08
2018-09-11T04:29:59.665Z,34.75
2018-09-11T04:30:59.401Z,35.7
2018-09-11T04:31:59.392Z,36.18
2018-09-11T04:32:59.642Z,35.22
2018-09-11T04:33:59.636Z,33.03
2018-09-11T04:34:59.375Z,32.18
2018-09-11T04:35:59.622Z,31.99
2018-09-11T04:36:59.618Z,31.69
2018-09-11T04:37:59.608Z,32.18
2018-09-11T04:38:59.597Z,33.52
2018-09-11T04:39:59.589Z,34.46
2018-09-11T04:40:59.598Z,34.67
2018-09-11T04:41:59.573Z,35.62
2018-09-11T04:42:59.368Z,35.99
2018-09-11T04:43:59.561Z,36.77
2018-09-11T04:44:59.553Z,36.68
2018-09-11T04:45:59.291Z,36.48
2018-09-11T04:46:59.538Z,37.05
2018-09-11T04:47:59.280Z,38.87
2018-09-11T04:48:59.528Z,39.54
2018-09-11T04:49:59.524Z,40.3
2018-09-11T04:50:59.512Z,40.97
2018-09-11T04:51:59.504Z,41.16
2018-09-11T04:52:59.502Z,41.26
2018-09-11T04:53:59.236Z,42.21
2018-09-11T04:54:59.484Z,42.69
2018-09-11T04:55:59.559Z,42.6
2018-09-11T04:56:59.470Z,42.88
2018-09-11T04:57:59.465Z,42.97
2018-09-11T04:58:59.454Z,43.07
2018-09-11T04:59:59.448Z,43.07
2018-09-11T05:00:59.438Z,42.88
2018-09-11T05:01:59.178Z,42.6
2018-09-11T05:02:59.430Z,42.6
2018-09-11T05:03:59.419Z,42.02
2018-09-11T05:04:59.414Z,42.11
2018-09-11T05:05:59.155Z,41.26
2018-09-11T05:06:59.399Z,39.25
2018-09-11T05:07:59.390Z,38.3
2018-09-11T05:08:59.386Z,38.3
2018-09-11T05:09:59.374Z,37.63
2018-09-11T05:10:59.368Z,35.72
2018-09-11T05:11:59.357Z,34.28
2018-09-11T05:12:59.356Z,34.77
2018-09-11T05:13:59.347Z,36.48
2018-09-11T05:14:59.339Z,37.53
2018-09-11T05:15:59.331Z,36.87
2018-09-11T05:16:59.326Z,37.34
2018-09-11T05:17:59.320Z,36.87
2018-09-11T05:18:59.324Z,37.44
2018-09-11T05:19:59.307Z,38.1
2018-09-11T05:20:59.298Z,38.87
2018-09-11T05:21:59.036Z,39.47
2018-09-11T05:22:59.286Z,39.56
2018-09-11T05:23:59.287Z,40.23
2018-09-11T05:24:59.269Z,40.23
2018-09-11T05:25:59.267Z,40.99
2018-09-11T05:26:59.256Z,41.18
2018-09-11T05:27:59.250Z,41.18
2018-09-11T05:28:58.986Z,41.75
2018-09-11T05:29:59.237Z,41.66
2018-09-11T05:30:58.974Z,41.85
2018-09-11T05:31:59.225Z,42.24
2018-09-11T05:32:58.961Z,43.09
2018-09-11T05:33:59.208Z,43.95
2018-09-11T05:34:59.201Z,44.15
2018-09-11T05:35:59.196Z,45.01
2018-09-11T05:36:59.190Z,44.72
2018-09-11T05:37:59.180Z,44.24
2018-09-11T05:38:58.935Z,44.62
2018-09-11T05:39:59.166Z,43.76
2018-09-11T05:40:59.159Z,43.02
2018-09-11T05:41:59.154Z,43.02
2018-09-11T05:42:59.150Z,43.02
2018-09-11T05:43:59.141Z,43.12
2018-09-11T05:44:59.140Z,43.3
2018-09-11T05:45:58.872Z,43.29
2018-09-11T05:46:58.868Z,42.64
2018-09-11T05:47:59.117Z,41.3
2018-09-11T05:48:59.114Z,42.07
2018-09-11T05:49:59.104Z,42.9
2018-09-11T05:50:59.092Z,43.5
2018-09-11T05:51:59.089Z,43.5
2018-09-11T05:52:59.082Z,43.29
2018-09-11T05:53:59.076Z,43.02
2018-09-11T05:54:59.066Z,43.57
2018-09-11T05:55:59.059Z,44.15
2018-09-11T05:56:59.064Z,44.07
2018-09-11T05:57:59.052Z,44.74
2018-09-11T05:58:59.089Z,43.95
2018-09-11T05:59:59.036Z,44.74
2018-09-11T06:00:59.035Z,45.89
2018-09-11T06:01:58.764Z,46.75
2018-09-11T06:02:59.016Z,47.99
2018-09-11T06:03:58.753Z,47.8
2018-09-11T06:04:59.008Z,48.28
2018-09-11T06:05:59.004Z,49.23
2018-09-11T06:06:58.996Z,49.71
2018-09-11T06:07:58.987Z,49.9
2018-09-11T06:08:58.994Z,50.57
2018-09-11T06:09:58.971Z,52.77
2018-09-11T06:10:58.708Z,54.88
2018-09-11T06:11:58.960Z,58.22
2018-09-11T06:12:58.949Z,58.83
2018-09-11T06:13:58.944Z,60.83
2018-09-11T06:14:58.937Z,62.55
2018-09-11T06:15:58.675Z,64.18
2018-09-11T06:16:58.923Z,65.9
2018-09-11T06:17:58.663Z,66.96
2018-09-11T06:18:58.656Z,68.39
2018-09-11T06:19:58.910Z,69.73
2018-09-11T06:20:58.908Z,70.43
2018-09-11T06:21:58.896Z,71.3
2018-09-11T06:22:58.889Z,71.58
2018-09-11T06:23:58.885Z,71.48
2018-09-11T06:24:58.881Z,72.16
2018-09-11T06:25:59.022Z,73.02
2018-09-11T06:26:58.866Z,73.79
2018-09-11T06:27:58.859Z,75.35
2018-09-11T06:28:58.910Z,75.41
2018-09-11T06:29:58.848Z,76.79
2018-09-11T06:30:58.846Z,77.65
2018-09-11T06:31:58.578Z,77.65
2018-09-11T06:32:58.829Z,77.55
2018-09-11T06:33:58.826Z,77.55
2018-09-11T06:34:58.818Z,78.32
2018-09-11T06:35:58.822Z,78.99
2018-09-11T06:36:58.856Z,78.13
2018-09-11T06:37:58.805Z,78.55
2018-09-11T06:38:58.802Z,78.27
2018-09-11T06:39:58.533Z,77.78
2018-09-11T06:40:58.828Z,76.82
2018-09-11T06:41:58.780Z,77.06
2018-09-11T06:42:58.777Z,79.16
2018-09-11T06:43:58.768Z,83.09
2018-09-11T06:44:58.765Z,83.76
2018-09-11T06:45:58.757Z,85.49
2018-09-11T06:46:58.866Z,86.25
2018-09-11T06:47:58.752Z,87.5
2018-09-11T06:48:58.745Z,88.17
2018-09-11T06:49:58.740Z,88.65
2018-09-11T06:50:58.740Z,88.65
2018-09-11T06:51:58.744Z,88.12
2018-09-11T06:52:58.467Z,88.75
2018-09-11T06:53:58.717Z,90.09
2018-09-11T06:54:58.715Z,90.9
2018-09-11T06:55:58.714Z,90.57
2018-09-11T06:56:58.705Z,91.19
2018-09-11T06:57:58.756Z,90.81
2018-09-11T06:58:58.738Z,91
2018-09-11T06:59:58.700Z,91.67
2018-09-11T07:00:58.685Z,92.1
2018-09-11T07:01:58.931Z,94.07
2018-09-11T07:02:58.419Z,95.36
2018-09-11T07:03:58.419Z,94.54
2018-09-11T07:04:58.668Z,93.58
2018-09-11T07:05:58.675Z,93.77
2018-09-11T07:06:58.658Z,93.49
2018-09-11T07:07:58.665Z,93.25
2018-09-11T07:08:58.659Z,93.92
2018-09-11T07:09:58.646Z,94.26
2018-09-11T07:10:58.386Z,94.26
2018-09-11T07:11:58.648Z,94.16
2018-09-11T07:12:58.635Z,93.59
2018-09-11T07:13:58.633Z,93.87
2018-09-11T07:14:58.623Z,94.21
2018-09-11T07:15:58.626Z,93.49
2018-09-11T07:16:58.622Z,93.54
2018-09-11T07:17:58.613Z,93.44
2018-09-11T07:18:58.612Z,93.82
2018-09-11T07:19:59.112Z,93.63
2018-09-11T07:20:58.601Z,93.54
2018-09-11T07:21:58.342Z,93.63
2018-09-11T07:22:58.593Z,93.44
2018-09-11T07:23:58.334Z,93.63
2018-09-11T07:24:58.586Z,92.86
2018-09-11T07:25:58.332Z,93.15
2018-09-11T07:26:58.580Z,92.96
2018-09-11T07:27:58.573Z,92.57
2018-09-11T07:28:58.569Z,92.19
2018-09-11T07:29:58.578Z,92
2018-09-11T07:30:58.579Z,92.19
2018-09-11T07:31:58.567Z,92.77
2018-09-11T07:32:58.565Z,93.15
2018-09-11T07:33:58.556Z,92.29
2018-09-11T07:34:58.561Z,91.71
2018-09-11T07:35:58.293Z,92.38
2018-09-11T07:36:58.540Z,92.48
2018-09-11T07:37:58.853Z,92.48
2018-09-11T07:38:58.542Z,91.42
2018-09-11T07:39:58.533Z,90.94
2018-09-11T07:40:58.526Z,91.13
2018-09-11T07:41:58.272Z,91.33
2018-09-11T07:42:58.527Z,90.56
2018-09-11T07:43:58.526Z,90.17
2018-09-11T07:44:58.515Z,91.28
2018-09-11T07:45:58.515Z,91.13
2018-09-11T07:46:58.513Z,92.29
2018-09-11T07:47:58.250Z,92.33
2018-09-11T07:48:58.503Z,91.56
2018-09-11T07:49:58.510Z,90.89
2018-09-11T07:50:58.242Z,90.22
2018-09-11T07:51:58.489Z,90.07
2018-09-11T07:52:58.626Z,91.52
2018-09-11T07:53:58.488Z,90.55
2018-09-11T07:54:58.487Z,90.65
2018-09-11T07:55:58.486Z,89.98
2018-09-11T07:56:58.223Z,89.11
2018-09-11T07:57:58.600Z,88.53
2018-09-11T07:58:58.476Z,88.53
2018-09-11T07:59:58.216Z,88.77
2018-09-11T08:00:58.469Z,89.21
2018-09-11T08:01:58.467Z,89.06
2018-09-11T08:02:58.258Z,89.15
2018-09-11T08:03:58.458Z,89.54
2018-09-11T08:04:58.470Z,88.87
2018-09-11T08:05:58.199Z,88.14
2018-09-11T08:06:58.455Z,88.81
2018-09-11T08:07:58.459Z,90.26
2018-09-11T08:08:58.451Z,88.71
2018-09-11T08:09:58.190Z,84.39
2018-09-11T08:10:58.188Z,83.52
2018-09-11T08:11:58.532Z,83.42
2018-09-11T08:12:58.443Z,83.91
2018-09-11T08:13:58.443Z,83.72
2018-09-11T08:14:58.433Z,82.56
2018-09-11T08:15:58.432Z,81.88
2018-09-11T08:16:58.425Z,84.29
2018-09-11T08:17:58.425Z,87.08
2018-09-11T08:18:58.168Z,86.89
2018-09-11T08:19:58.725Z,86.69
2018-09-11T08:20:58.422Z,85.64
2018-09-11T08:21:58.167Z,87.95
2018-09-11T08:22:58.415Z,87.56
2018-09-11T08:23:58.421Z,86.45
2018-09-11T08:24:58.415Z,88.38
2018-09-11T08:25:58.413Z,89.43
2018-09-11T08:26:58.411Z,86.98
2018-09-11T08:27:58.406Z,84.28
2018-09-11T08:28:58.405Z,83.99
2018-09-11T08:29:58.411Z,84.66
2018-09-11T08:30:58.401Z,83.89
2018-09-11T08:31:58.401Z,83.22
2018-09-11T08:32:58.149Z,82.83
2018-09-11T08:33:58.397Z,81.93
2018-09-11T08:34:58.402Z,82.12
2018-09-11T08:35:58.392Z,83.08
2018-09-11T08:36:58.393Z,83.66
2018-09-11T08:37:58.390Z,85.68
2018-09-11T08:38:58.385Z,85.43
2018-09-11T08:39:58.387Z,84.95
2018-09-11T08:40:58.462Z,83.41
2018-09-11T08:41:58.384Z,83.12
2018-09-11T08:42:58.381Z,81.87
2018-09-11T08:43:58.379Z,79.69
2018-09-11T08:44:58.382Z,77.67
2018-09-11T08:45:58.378Z,77.09
2018-09-11T08:46:58.378Z,75.65
2018-09-11T08:47:58.380Z,76.9
2018-09-11T08:48:58.373Z,79.98
2018-09-11T08:49:58.372Z,75.93
2018-09-11T08:50:58.370Z,75.13
2018-09-11T08:51:58.411Z,75.03
2018-09-11T08:52:58.370Z,77.06
2018-09-11T08:53:58.362Z,79.13
2018-09-11T08:54:58.361Z,80.1
2018-09-11T08:55:58.363Z,81.06
2018-09-11T08:56:58.357Z,82.94
2018-09-11T08:57:58.360Z,84.1
2018-09-11T08:58:58.098Z,86.89
2018-09-11T08:59:58.360Z,88.04
2018-09-11T09:00:58.358Z,88.33
2018-09-11T09:01:58.093Z,87.18
2018-09-11T09:02:58.351Z,87.76
2018-09-11T09:03:58.348Z,87.76
2018-09-11T09:04:58.345Z,86.69
2018-09-11T09:05:58.088Z,85.1
2018-09-11T09:06:58.451Z,85.3
2018-09-11T09:07:58.347Z,85.87
2018-09-11T09:08:58.084Z,86.21
2018-09-11T09:09:58.161Z,84.76
2018-09-11T09:10:58.332Z,83.8
2018-09-11T09:11:58.078Z,82.64
2018-09-11T09:12:58.332Z,82.35
2018-09-11T09:13:58.329Z,82.2
2018-09-11T09:14:58.074Z,81.91
2018-09-11T09:15:58.115Z,82.68
2018-09-11T09:16:58.324Z,78.44
2018-09-11T09:17:58.330Z,77.96
2018-09-11T09:18:58.325Z,77.09
2018-09-11T09:19:58.325Z,76.03
2018-09-11T09:20:58.416Z,77.28
2018-09-11T09:21:58.061Z,78.15
2018-09-11T09:22:58.316Z,77.96
2018-09-11T09:23:58.063Z,80.27
2018-09-11T09:24:58.315Z,77.96
2018-09-11T09:25:58.314Z,77.33
2018-09-11T09:26:58.341Z,79.79
2018-09-11T09:27:58.316Z,75.01
2018-09-11T09:28:58.309Z,70.76
2018-09-11T09:29:58.315Z,66.82
2018-09-11T09:30:58.308Z,61.32
2018-09-11T09:31:58.051Z,61.03
2018-09-11T09:32:58.307Z,56.52
2018-09-11T09:33:58.315Z,59.97
2018-09-11T09:34:58.304Z,57.59
2018-09-11T09:35:58.302Z,56.91
2018-09-11T09:36:58.084Z,54.79
2018-09-11T09:37:58.301Z,53.25
2018-09-11T09:38:58.301Z,53.44
2018-09-11T09:39:58.297Z,53.05
2018-09-11T09:40:58.301Z,53.05
2018-09-11T09:41:58.295Z,51.22
2018-09-11T09:42:58.298Z,51.03
2018-09-11T09:43:58.093Z,50.64
2018-09-11T09:44:58.295Z,49.19
2018-09-11T09:45:58.294Z,50.32
2018-09-11T09:46:58.297Z,51.03
2018-09-11T09:47:58.288Z,51.39
2018-09-11T09:48:58.290Z,51.22
2018-09-11T09:49:58.287Z,53.53
2018-09-11T09:50:58.693Z,52.64
2018-09-11T09:51:58.030Z,54.69
2018-09-11T09:52:58.293Z,52.67
2018-09-11T09:53:58.287Z,51.22
2018-09-11T09:54:58.287Z,50.64
2018-09-11T09:55:58.284Z,52.19
2018-09-11T09:56:58.028Z,50.45
2018-09-11T09:57:58.290Z,50.26
2018-09-11T09:58:58.031Z,50.54
2018-09-11T09:59:58.025Z,51.41
2018-09-11T10:00:58.024Z,51.25
2018-09-11T10:01:58.295Z,52.21
2018-09-11T10:02:58.281Z,53.27
2018-09-11T10:03:58.277Z,53.85
2018-09-11T10:04:58.442Z,52.59
2018-09-11T10:05:58.277Z,52.59
2018-09-11T10:06:58.275Z,50.76
2018-09-11T10:07:58.277Z,50.57
2018-09-11T10:08:58.281Z,51.53
2018-09-11T10:09:58.274Z,52.59
2018-09-11T10:10:58.280Z,54.55
2018-09-11T10:11:58.383Z,56.2
2018-09-11T10:12:58.290Z,53.39
2018-09-11T10:13:58.270Z,50.5
2018-09-11T10:14:58.017Z,49.24
2018-09-11T10:15:58.279Z,48.18
2018-09-11T10:16:58.275Z,47.99
2018-09-11T10:17:58.270Z,47.41
2018-09-11T10:18:58.271Z,46.15
2018-09-11T10:19:58.271Z,46.83
2018-09-11T10:20:58.281Z,47.7
2018-09-11T10:21:58.272Z,47.89
2018-09-11T10:22:58.016Z,45.28
2018-09-11T10:23:58.271Z,44.03
2018-09-11T10:24:58.268Z,44.32
2018-09-11T10:25:58.272Z,44.42
2018-09-11T10:26:58.268Z,44.32
2018-09-11T10:27:58.017Z,46.06
2018-09-11T10:28:58.271Z,46.25
2018-09-11T10:29:58.268Z,45.59
2018-09-11T10:30:58.266Z,45.79
2018-09-11T10:31:58.267Z,46.75
2018-09-11T10:32:58.014Z,45.59
2018-09-11T10:33:58.388Z,44.24
2018-09-11T10:34:58.271Z,44.73
2018-09-11T10:35:58.020Z,44.15
2018-09-11T10:36:58.270Z,44.34
2018-09-11T10:37:58.274Z,44.63
2018-09-11T10:38:58.268Z,43.95
2018-09-11T10:39:58.267Z,44.34
2018-09-11T10:40:58.271Z,43.95
2018-09-11T10:41:58.269Z,44.63
2018-09-11T10:42:58.270Z,43.95
2018-09-11T10:43:58.011Z,43.1
2018-09-11T10:44:58.397Z,42.33
2018-09-11T10:45:58.271Z,40.88
2018-09-11T10:46:58.270Z,40.5
2018-09-11T10:47:58.270Z,41.85
2018-09-11T10:48:58.373Z,41.29
2018-09-11T10:49:58.271Z,40.81
2018-09-11T10:50:58.015Z,41
2018-09-11T10:51:58.426Z,39.16
2018-09-11T10:52:58.275Z,38.2
2018-09-11T10:53:58.279Z,38.68
2018-09-11T10:54:58.276Z,39.45
2018-09-11T10:55:58.273Z,40.9
2018-09-11T10:56:58.020Z,40.71
2018-09-11T10:57:58.277Z,41.39
2018-09-11T10:58:58.272Z,42.07
2018-09-11T10:59:58.023Z,41
2018-09-11T11:00:58.276Z,40.03
2018-09-11T11:01:58.283Z,40.42
2018-09-11T11:02:58.285Z,40.81
2018-09-11T11:03:58.282Z,41.48
2018-09-11T11:04:58.287Z,41.77
2018-09-11T11:05:58.287Z,41.11
2018-09-11T11:06:58.286Z,40.71
2018-09-11T11:07:58.295Z,39.09
2018-09-11T11:08:58.031Z,39.55
2018-09-11T11:09:58.290Z,40.23
2018-09-11T11:10:58.288Z,40.03
2018-09-11T11:11:58.289Z,39.84
2018-09-11T11:12:58.291Z,38.48
2018-09-11T11:13:58.296Z,38.87
2018-09-11T11:14:58.298Z,40.25
2018-09-11T11:15:58.294Z,39.86
2018-09-11T11:16:58.336Z,39.18
2018-09-11T11:17:58.041Z,40.63
2018-09-11T11:18:58.299Z,40.44
2018-09-11T11:19:58.300Z,40.15
2018-09-11T11:20:58.300Z,40.83
2018-09-11T11:21:58.302Z,40.44
2018-09-11T11:22:58.048Z,39.57
2018-09-11T11:23:58.306Z,39.86
2018-09-11T11:24:58.050Z,40.63
2018-09-11T11:25:58.310Z,40.92
2018-09-11T11:26:58.472Z,41.41
2018-09-11T11:27:58.052Z,41.21
2018-09-11T11:28:58.058Z,41.21
2018-09-11T11:29:58.313Z,41.39
2018-09-11T11:30:58.311Z,40.71
2018-09-11T11:31:58.316Z,40.9
2018-09-11T11:32:58.317Z,39.74
2018-09-11T11:33:58.323Z,40.32
2018-09-11T11:34:58.327Z,40.5
2018-09-11T11:35:58.423Z,41.27
2018-09-11T11:36:58.753Z,40.59
2018-09-11T11:37:58.323Z,40.88
2018-09-11T11:38:58.327Z,41.83
2018-09-11T11:39:58.328Z,40.28
2018-09-11T11:40:58.347Z,40.67
2018-09-11T11:41:58.512Z,40.94
2018-09-11T11:42:58.328Z,41.52
2018-09-11T11:43:58.332Z,42.1
2018-09-11T11:44:58.073Z,41.71
2018-09-11T11:45:58.332Z,41.81
2018-09-11T11:46:58.332Z,42.39
2018-09-11T11:47:58.335Z,43.24
2018-09-11T11:48:58.333Z,44.2
2018-09-11T11:49:58.076Z,45.07
2018-09-11T11:50:58.333Z,44.68
2018-09-11T11:51:58.336Z,44.87
2018-09-11T11:52:58.333Z,45.84
2018-09-11T11:53:58.338Z,44.1
2018-09-11T11:54:58.514Z,44.1
2018-09-11T11:55:58.340Z,43.52
2018-09-11T11:56:58.342Z,44.1
2018-09-11T11:57:58.339Z,44.97
2018-09-11T11:58:58.343Z,44.39
2018-09-11T11:59:58.079Z,44.39
2018-09-11T12:00:58.082Z,44.2
2018-09-11T12:01:58.502Z,44.2
2018-09-11T12:02:58.345Z,44.22
2018-09-11T12:03:58.341Z,44.7
2018-09-11T12:04:58.337Z,44.03
2018-09-11T12:05:58.338Z,42.87
2018-09-11T12:06:58.340Z,42
2018-09-11T12:07:58.451Z,42.1
2018-09-11T12:08:58.343Z,42.58
2018-09-11T12:09:58.090Z,42.29
2018-09-11T12:10:58.349Z,43.54
2018-09-11T12:11:58.340Z,44.32
2018-09-11T12:12:58.347Z,43.28
2018-09-11T12:13:58.347Z,43.66
2018-09-11T12:14:58.345Z,43.85
2018-09-11T12:15:58.343Z,43.57
2018-09-11T12:16:58.422Z,43.49
2018-09-11T12:17:58.091Z,43.01
2018-09-11T12:18:58.348Z,42.24
2018-09-11T12:19:58.092Z,41.85
2018-09-11T12:20:58.347Z,42.33
2018-09-11T12:21:58.360Z,42.82
2018-09-11T12:22:58.355Z,43.3
2018-09-11T12:23:58.352Z,42.62
2018-09-11T12:24:58.354Z,41.94
2018-09-11T12:25:58.354Z,41.56
2018-09-11T12:26:58.355Z,41.75
2018-09-11T12:27:58.384Z,41.94
2018-09-11T12:28:58.422Z,42.62
2018-09-11T12:29:58.359Z,43.1
2018-09-11T12:30:58.488Z,41.56
2018-09-11T12:31:58.357Z,40.88
2018-09-11T12:32:58.354Z,40.59
2018-09-11T12:33:58.116Z,40.98
2018-09-11T12:34:58.365Z,41.09
2018-09-11T12:35:58.363Z,38.78
2018-09-11T12:36:58.371Z,39.45
2018-09-11T12:37:58.372Z,39.45
2018-09-11T12:38:58.366Z,39.84
2018-09-11T12:39:58.368Z,39.06
2018-09-11T12:40:58.372Z,38.29
2018-09-11T12:41:58.371Z,37.81
2018-09-11T12:42:58.373Z,38.1
2018-09-11T12:43:58.372Z,38.48
2018-09-11T12:44:58.376Z,37.32
2018-09-11T12:45:58.754Z,37.62
2018-09-11T12:46:58.835Z,37.81
2018-09-11T12:47:59.267Z,37.81
2018-09-11T12:48:58.393Z,38.87
2018-09-11T12:49:58.388Z,38.29
2018-09-11T12:50:58.126Z,38.48
2018-09-11T12:51:58.396Z,37.63
2018-09-11T12:52:58.129Z,38.31
2018-09-11T12:53:58.388Z,38.02
2018-09-11T12:54:58.389Z,38.7